sensor_id;sensor_type;location;lat;lon;timestamp;P1;durP1;ratioP1;P2;durP2;ratioP2
74648;SDS011;63168;49.280;7.214;2022-09-09T00:02:13;2.10;;;0.90;;
74648;SDS011;63168;49.280;7.214;2022-09-09T00:04:45;2.95;;;1.10;;
74648;SDS011;63168;49.280;7.214;2022-09-09T00:07:27;2.60;;;0.90;;
74648;SDS011;63168;49.280;7.214;2022-09-09T00:10:04;2.10;;;1.00;;
74648;SDS011;63168;49.280;7.214;2022-09-09T00:12:39;2.28;;;1.00;;
74648;SDS011;63168;49.280;7.214;2022-09-09T00:15:14;2.85;;;1.00;;
74648;SDS011;63168;49.280;7.214;2022-09-09T00:17:46;2.92;;;1.05;;
74648;SDS011;63168;49.280;7.214;2022-09-09T00:20:16;2.60;;;0.85;;
74648;SDS011;63168;49.280;7.214;2022-09-09T00:22:51;1.92;;;0.90;;
74648;SDS011;63168;49.280;7.214;2022-09-09T00:25:24;3.22;;;0.95;;
74648;SDS011;63168;49.280;7.214;2022-09-09T00:27:54;1.20;;;0.68;;
74648;SDS011;63168;49.280;7.214;2022-09-09T00:30:22;1.95;;;0.90;;
74648;SDS011;63168;49.280;7.214;2022-09-09T00:32:49;2.42;;;0.88;;
74648;SDS011;63168;49.280;7.214;2022-09-09T00:35:21;2.38;;;0.90;;
74648;SDS011;63168;49.280;7.214;2022-09-09T00:37:52;2.10;;;0.88;;
74648;SDS011;63168;49.280;7.214;2022-09-09T00:40:26;1.95;;;0.80;;
74648;SDS011;63168;49.280;7.214;2022-09-09T00:43:05;1.88;;;0.90;;
74648;SDS011;63168;49.280;7.214;2022-09-09T00:45:52;1.73;;;1.02;;
74648;SDS011;63168;49.280;7.214;2022-09-09T00:48:32;2.70;;;0.80;;
74648;SDS011;63168;49.280;7.214;2022-09-09T00:51:05;0.98;;;0.70;;
74648;SDS011;63168;49.280;7.214;2022-09-09T00:53:41;2.08;;;0.80;;
74648;SDS011;63168;49.280;7.214;2022-09-09T00:56:27;1.38;;;0.80;;
74648;SDS011;63168;49.280;7.214;2022-09-09T00:59:00;2.72;;;0.88;;
74648;SDS011;63168;49.280;7.214;2022-09-09T01:01:31;2.03;;;0.80;;
74648;SDS011;63168;49.280;7.214;2022-09-09T01:03:57;1.53;;;0.90;;
74648;SDS011;63168;49.280;7.214;2022-09-09T01:06:27;2.50;;;0.90;;
74648;SDS011;63168;49.280;7.214;2022-09-09T01:09:08;2.03;;;0.80;;
74648;SDS011;63168;49.280;7.214;2022-09-09T01:11:50;2.08;;;0.90;;
74648;SDS011;63168;49.280;7.214;2022-09-09T01:14:24;1.50;;;0.70;;
74648;SDS011;63168;49.280;7.214;2022-09-09T01:17:05;2.80;;;1.10;;
74648;SDS011;63168;49.280;7.214;2022-09-09T01:19:38;1.83;;;0.88;;
74648;SDS011;63168;49.280;7.214;2022-09-09T01:22:11;1.88;;;0.80;;
74648;SDS011;63168;49.280;7.214;2022-09-09T01:24:48;2.37;;;0.90;;
74648;SDS011;63168;49.280;7.214;2022-09-09T01:27:28;1.80;;;0.80;;
74648;SDS011;63168;49.280;7.214;2022-09-09T01:29:54;2.85;;;0.95;;
74648;SDS011;63168;49.280;7.214;2022-09-09T01:35:09;1.45;;;0.80;;
74648;SDS011;63168;49.280;7.214;2022-09-09T01:37:40;1.95;;;0.90;;
74648;SDS011;63168;49.280;7.214;2022-09-09T01:40:06;2.85;;;1.05;;
74648;SDS011;63168;49.280;7.214;2022-09-09T01:42:33;2.00;;;0.90;;
74648;SDS011;63168;49.280;7.214;2022-09-09T01:44:59;2.13;;;1.00;;
74648;SDS011;63168;49.280;7.214;2022-09-09T01:47:24;1.00;;;0.60;;
74648;SDS011;63168;49.280;7.214;2022-09-09T01:49:50;2.10;;;0.73;;
74648;SDS011;63168;49.280;7.214;2022-09-09T01:52:15;1.70;;;0.93;;
74648;SDS011;63168;49.280;7.214;2022-09-09T01:54:41;2.27;;;0.77;;
74648;SDS011;63168;49.280;7.214;2022-09-09T01:57:08;1.53;;;0.77;;
74648;SDS011;63168;49.280;7.214;2022-09-09T01:59:54;1.30;;;0.70;;
74648;SDS011;63168;49.280;7.214;2022-09-09T02:02:26;1.35;;;0.70;;
74648;SDS011;63168;49.280;7.214;2022-09-09T02:05:00;2.10;;;0.80;;
74648;SDS011;63168;49.280;7.214;2022-09-09T02:07:38;2.83;;;0.85;;
74648;SDS011;63168;49.280;7.214;2022-09-09T02:10:08;1.65;;;0.70;;
74648;SDS011;63168;49.280;7.214;2022-09-09T02:12:36;2.63;;;1.00;;
74648;SDS011;63168;49.280;7.214;2022-09-09T02:15:11;1.13;;;0.80;;
74648;SDS011;63168;49.280;7.214;2022-09-09T02:17:47;3.75;;;1.02;;
74648;SDS011;63168;49.280;7.214;2022-09-09T02:20:17;1.80;;;0.80;;
74648;SDS011;63168;49.280;7.214;2022-09-09T02:22:44;3.20;;;0.85;;
74648;SDS011;63168;49.280;7.214;2022-09-09T02:25:14;1.77;;;0.73;;
74648;SDS011;63168;49.280;7.214;2022-09-09T02:27:43;1.95;;;0.82;;
74648;SDS011;63168;49.280;7.214;2022-09-09T02:30:12;0.97;;;0.60;;
74648;SDS011;63168;49.280;7.214;2022-09-09T02:32:38;1.33;;;0.73;;
74648;SDS011;63168;49.280;7.214;2022-09-09T02:35:07;1.75;;;1.05;;
74648;SDS011;63168;49.280;7.214;2022-09-09T02:37:36;1.55;;;0.73;;
74648;SDS011;63168;49.280;7.214;2022-09-09T02:40:03;2.33;;;0.80;;
74648;SDS011;63168;49.280;7.214;2022-09-09T02:42:30;1.60;;;0.80;;
74648;SDS011;63168;49.280;7.214;2022-09-09T02:44:55;1.83;;;0.90;;
74648;SDS011;63168;49.280;7.214;2022-09-09T02:47:26;1.70;;;0.70;;
74648;SDS011;63168;49.280;7.214;2022-09-09T02:50:00;1.92;;;0.73;;
74648;SDS011;63168;49.280;7.214;2022-09-09T02:52:35;1.67;;;0.70;;
74648;SDS011;63168;49.280;7.214;2022-09-09T02:55:09;1.60;;;0.80;;
74648;SDS011;63168;49.280;7.214;2022-09-09T02:57:41;1.75;;;0.70;;
74648;SDS011;63168;49.280;7.214;2022-09-09T03:00:12;1.70;;;0.70;;
74648;SDS011;63168;49.280;7.214;2022-09-09T03:02:39;2.35;;;0.73;;
74648;SDS011;63168;49.280;7.214;2022-09-09T03:05:05;1.50;;;0.60;;
74648;SDS011;63168;49.280;7.214;2022-09-09T03:07:31;1.25;;;0.80;;
74648;SDS011;63168;49.280;7.214;2022-09-09T03:09:57;2.40;;;0.80;;
74648;SDS011;63168;49.280;7.214;2022-09-09T03:12:23;1.40;;;0.75;;
74648;SDS011;63168;49.280;7.214;2022-09-09T03:14:48;1.43;;;0.73;;
74648;SDS011;63168;49.280;7.214;2022-09-09T03:17:14;2.28;;;0.90;;
74648;SDS011;63168;49.280;7.214;2022-09-09T03:19:41;1.95;;;0.90;;
74648;SDS011;63168;49.280;7.214;2022-09-09T03:22:08;3.37;;;0.90;;
74648;SDS011;63168;49.280;7.214;2022-09-09T03:24:35;2.20;;;0.80;;
74648;SDS011;63168;49.280;7.214;2022-09-09T03:27:00;2.03;;;0.77;;
74648;SDS011;63168;49.280;7.214;2022-09-09T03:29:26;1.48;;;0.77;;
74648;SDS011;63168;49.280;7.214;2022-09-09T03:31:51;1.23;;;0.68;;
74648;SDS011;63168;49.280;7.214;2022-09-09T03:34:17;1.40;;;0.73;;
74648;SDS011;63168;49.280;7.214;2022-09-09T03:36:43;1.17;;;0.60;;
74648;SDS011;63168;49.280;7.214;2022-09-09T03:39:09;1.70;;;0.80;;
74648;SDS011;63168;49.280;7.214;2022-09-09T03:41:34;1.37;;;0.60;;
74648;SDS011;63168;49.280;7.214;2022-09-09T03:44:02;1.37;;;0.67;;
74648;SDS011;63168;49.280;7.214;2022-09-09T03:46:27;1.40;;;0.70;;
74648;SDS011;63168;49.280;7.214;2022-09-09T03:48:53;1.17;;;0.63;;
74648;SDS011;63168;49.280;7.214;2022-09-09T03:51:19;1.90;;;0.80;;
74648;SDS011;63168;49.280;7.214;2022-09-09T03:53:46;2.00;;;0.82;;
74648;SDS011;63168;49.280;7.214;2022-09-09T03:56:11;1.45;;;0.70;;
74648;SDS011;63168;49.280;7.214;2022-09-09T03:58:37;2.17;;;0.90;;
74648;SDS011;63168;49.280;7.214;2022-09-09T04:01:03;2.60;;;0.80;;
74648;SDS011;63168;49.280;7.214;2022-09-09T04:03:30;3.03;;;0.80;;
74648;SDS011;63168;49.280;7.214;2022-09-09T04:05:56;2.33;;;0.80;;
74648;SDS011;63168;49.280;7.214;2022-09-09T04:08:23;1.30;;;0.70;;
74648;SDS011;63168;49.280;7.214;2022-09-09T04:10:53;2.40;;;0.68;;
74648;SDS011;63168;49.280;7.214;2022-09-09T04:13:22;3.35;;;0.80;;
74648;SDS011;63168;49.280;7.214;2022-09-09T04:15:50;3.10;;;0.80;;
74648;SDS011;63168;49.280;7.214;2022-09-09T04:18:17;2.47;;;0.90;;
74648;SDS011;63168;49.280;7.214;2022-09-09T04:20:42;2.55;;;0.80;;
74648;SDS011;63168;49.280;7.214;2022-09-09T04:23:08;4.17;;;1.10;;
74648;SDS011;63168;49.280;7.214;2022-09-09T04:25:33;3.42;;;0.85;;
74648;SDS011;63168;49.280;7.214;2022-09-09T04:28:00;4.50;;;1.10;;
74648;SDS011;63168;49.280;7.214;2022-09-09T04:30:27;3.17;;;1.10;;
74648;SDS011;63168;49.280;7.214;2022-09-09T04:32:53;2.50;;;1.10;;
74648;SDS011;63168;49.280;7.214;2022-09-09T04:35:18;3.83;;;1.10;;
74648;SDS011;63168;49.280;7.214;2022-09-09T04:37:45;4.30;;;1.02;;
74648;SDS011;63168;49.280;7.214;2022-09-09T04:40:10;3.13;;;1.20;;
74648;SDS011;63168;49.280;7.214;2022-09-09T04:42:36;3.70;;;1.23;;
74648;SDS011;63168;49.280;7.214;2022-09-09T04:45:03;2.43;;;0.83;;
74648;SDS011;63168;49.280;7.214;2022-09-09T04:47:29;4.37;;;1.10;;
74648;SDS011;63168;49.280;7.214;2022-09-09T04:49:54;2.70;;;0.88;;
74648;SDS011;63168;49.280;7.214;2022-09-09T04:52:19;4.40;;;1.53;;
74648;SDS011;63168;49.280;7.214;2022-09-09T04:54:45;3.63;;;1.10;;
74648;SDS011;63168;49.280;7.214;2022-09-09T04:57:11;4.40;;;0.90;;
74648;SDS011;63168;49.280;7.214;2022-09-09T04:59:36;3.03;;;0.90;;
74648;SDS011;63168;49.280;7.214;2022-09-09T05:02:03;3.40;;;0.95;;
74648;SDS011;63168;49.280;7.214;2022-09-09T05:04:29;1.73;;;0.90;;
74648;SDS011;63168;49.280;7.214;2022-09-09T05:06:55;5.40;;;1.70;;
74648;SDS011;63168;49.280;7.214;2022-09-09T05:09:21;2.72;;;1.13;;
74648;SDS011;63168;49.280;7.214;2022-09-09T05:11:46;2.70;;;0.98;;
74648;SDS011;63168;49.280;7.214;2022-09-09T05:14:11;4.70;;;1.00;;
74648;SDS011;63168;49.280;7.214;2022-09-09T05:16:37;2.53;;;1.00;;
74648;SDS011;63168;49.280;7.214;2022-09-09T05:19:04;5.20;;;1.30;;
74648;SDS011;63168;49.280;7.214;2022-09-09T05:21:29;3.83;;;1.10;;
74648;SDS011;63168;49.280;7.214;2022-09-09T05:23:55;2.20;;;1.00;;
74648;SDS011;63168;49.280;7.214;2022-09-09T05:26:21;4.53;;;1.17;;
74648;SDS011;63168;49.280;7.214;2022-09-09T05:28:47;3.30;;;0.90;;
74648;SDS011;63168;49.280;7.214;2022-09-09T05:31:13;4.00;;;0.93;;
74648;SDS011;63168;49.280;7.214;2022-09-09T05:33:41;3.33;;;1.00;;
74648;SDS011;63168;49.280;7.214;2022-09-09T05:36:10;2.10;;;0.90;;
74648;SDS011;63168;49.280;7.214;2022-09-09T05:38:38;3.80;;;0.90;;
74648;SDS011;63168;49.280;7.214;2022-09-09T05:41:04;4.28;;;0.98;;
74648;SDS011;63168;49.280;7.214;2022-09-09T05:43:30;1.17;;;0.75;;
74648;SDS011;63168;49.280;7.214;2022-09-09T05:46:01;3.80;;;1.00;;
74648;SDS011;63168;49.280;7.214;2022-09-09T05:48:29;3.95;;;0.90;;
74648;SDS011;63168;49.280;7.214;2022-09-09T05:50:55;5.03;;;1.10;;
74648;SDS011;63168;49.280;7.214;2022-09-09T05:53:22;4.73;;;1.10;;
74648;SDS011;63168;49.280;7.214;2022-09-09T05:55:47;4.60;;;1.40;;
74648;SDS011;63168;49.280;7.214;2022-09-09T05:58:13;3.03;;;0.83;;
74648;SDS011;63168;49.280;7.214;2022-09-09T06:00:39;4.87;;;1.00;;
74648;SDS011;63168;49.280;7.214;2022-09-09T06:03:05;2.83;;;0.93;;
74648;SDS011;63168;49.280;7.214;2022-09-09T06:05:30;4.17;;;1.20;;
74648;SDS011;63168;49.280;7.214;2022-09-09T06:07:55;4.93;;;0.97;;
74648;SDS011;63168;49.280;7.214;2022-09-09T06:10:22;3.60;;;1.00;;
74648;SDS011;63168;49.280;7.214;2022-09-09T06:12:48;3.03;;;1.07;;
74648;SDS011;63168;49.280;7.214;2022-09-09T06:15:13;3.55;;;1.00;;
74648;SDS011;63168;49.280;7.214;2022-09-09T06:17:39;2.63;;;0.87;;
74648;SDS011;63168;49.280;7.214;2022-09-09T06:20:04;4.10;;;1.00;;
74648;SDS011;63168;49.280;7.214;2022-09-09T06:22:31;2.00;;;0.90;;
74648;SDS011;63168;49.280;7.214;2022-09-09T06:24:56;4.33;;;1.10;;
74648;SDS011;63168;49.280;7.214;2022-09-09T06:27:23;4.67;;;1.30;;
74648;SDS011;63168;49.280;7.214;2022-09-09T06:29:48;3.38;;;1.50;;
74648;SDS011;63168;49.280;7.214;2022-09-09T06:32:14;3.77;;;1.20;;
74648;SDS011;63168;49.280;7.214;2022-09-09T06:34:39;3.90;;;1.77;;
74648;SDS011;63168;49.280;7.214;2022-09-09T06:37:05;3.88;;;1.08;;
74648;SDS011;63168;49.280;7.214;2022-09-09T06:39:31;3.88;;;1.00;;
74648;SDS011;63168;49.280;7.214;2022-09-09T06:41:57;3.78;;;1.00;;
74648;SDS011;63168;49.280;7.214;2022-09-09T06:44:24;3.97;;;1.10;;
74648;SDS011;63168;49.280;7.214;2022-09-09T06:46:51;3.38;;;1.00;;
74648;SDS011;63168;49.280;7.214;2022-09-09T06:49:17;2.90;;;0.95;;
74648;SDS011;63168;49.280;7.214;2022-09-09T06:51:43;4.33;;;1.10;;
74648;SDS011;63168;49.280;7.214;2022-09-09T06:54:08;3.53;;;1.02;;
74648;SDS011;63168;49.280;7.214;2022-09-09T06:56:35;3.63;;;0.90;;
74648;SDS011;63168;49.280;7.214;2022-09-09T06:59:03;3.15;;;0.90;;
74648;SDS011;63168;49.280;7.214;2022-09-09T07:01:31;4.15;;;1.00;;
74648;SDS011;63168;49.280;7.214;2022-09-09T07:03:58;4.38;;;1.35;;
74648;SDS011;63168;49.280;7.214;2022-09-09T07:06:25;5.20;;;1.02;;
74648;SDS011;63168;49.280;7.214;2022-09-09T07:08:53;5.15;;;1.77;;
74648;SDS011;63168;49.280;7.214;2022-09-09T07:11:20;4.70;;;1.00;;
74648;SDS011;63168;49.280;7.214;2022-09-09T07:13:46;3.65;;;1.27;;
74648;SDS011;63168;49.280;7.214;2022-09-09T07:16:13;3.90;;;1.00;;
74648;SDS011;63168;49.280;7.214;2022-09-09T07:18:41;3.80;;;1.20;;
74648;SDS011;63168;49.280;7.214;2022-09-09T07:21:07;5.27;;;1.13;;
74648;SDS011;63168;49.280;7.214;2022-09-09T07:23:34;3.60;;;1.20;;
74648;SDS011;63168;49.280;7.214;2022-09-09T07:26:01;5.93;;;1.30;;
74648;SDS011;63168;49.280;7.214;2022-09-09T07:28:26;4.82;;;1.38;;
74648;SDS011;63168;49.280;7.214;2022-09-09T07:30:54;5.07;;;1.25;;
74648;SDS011;63168;49.280;7.214;2022-09-09T07:33:20;4.15;;;1.13;;
74648;SDS011;63168;49.280;7.214;2022-09-09T07:35:46;4.53;;;1.30;;
74648;SDS011;63168;49.280;7.214;2022-09-09T07:38:12;4.13;;;1.30;;
74648;SDS011;63168;49.280;7.214;2022-09-09T07:40:37;4.47;;;1.20;;
74648;SDS011;63168;49.280;7.214;2022-09-09T07:43:03;5.72;;;1.30;;
74648;SDS011;63168;49.280;7.214;2022-09-09T07:45:29;2.33;;;0.90;;
74648;SDS011;63168;49.280;7.214;2022-09-09T07:47:57;5.78;;;1.23;;
74648;SDS011;63168;49.280;7.214;2022-09-09T07:50:23;7.47;;;1.30;;
74648;SDS011;63168;49.280;7.214;2022-09-09T07:52:50;3.75;;;1.27;;
74648;SDS011;63168;49.280;7.214;2022-09-09T07:55:15;3.77;;;1.03;;
74648;SDS011;63168;49.280;7.214;2022-09-09T07:57:41;4.43;;;1.27;;
74648;SDS011;63168;49.280;7.214;2022-09-09T08:00:06;4.33;;;1.10;;
74648;SDS011;63168;49.280;7.214;2022-09-09T08:02:33;4.32;;;1.30;;
74648;SDS011;63168;49.280;7.214;2022-09-09T08:04:58;4.60;;;1.57;;
74648;SDS011;63168;49.280;7.214;2022-09-09T08:07:24;4.33;;;1.17;;
74648;SDS011;63168;49.280;7.214;2022-09-09T08:09:51;3.20;;;1.10;;
74648;SDS011;63168;49.280;7.214;2022-09-09T08:12:16;4.38;;;1.70;;
74648;SDS011;63168;49.280;7.214;2022-09-09T08:14:42;4.97;;;1.10;;
74648;SDS011;63168;49.280;7.214;2022-09-09T08:17:07;6.10;;;1.60;;
74648;SDS011;63168;49.280;7.214;2022-09-09T08:19:33;4.82;;;1.33;;
74648;SDS011;63168;49.280;7.214;2022-09-09T08:22:01;3.80;;;1.60;;
74648;SDS011;63168;49.280;7.214;2022-09-09T08:24:28;4.60;;;1.30;;
74648;SDS011;63168;49.280;7.214;2022-09-09T08:26:55;4.03;;;1.20;;
74648;SDS011;63168;49.280;7.214;2022-09-09T08:29:21;3.78;;;1.17;;
74648;SDS011;63168;49.280;7.214;2022-09-09T08:31:49;3.83;;;1.40;;
74648;SDS011;63168;49.280;7.214;2022-09-09T08:34:16;5.05;;;1.30;;
74648;SDS011;63168;49.280;7.214;2022-09-09T08:36:45;5.38;;;1.35;;
74648;SDS011;63168;49.280;7.214;2022-09-09T08:39:13;3.25;;;1.30;;
74648;SDS011;63168;49.280;7.214;2022-09-09T08:41:42;6.20;;;1.60;;
74648;SDS011;63168;49.280;7.214;2022-09-09T08:44:22;5.65;;;1.80;;
74648;SDS011;63168;49.280;7.214;2022-09-09T08:47:03;7.07;;;1.42;;
74648;SDS011;63168;49.280;7.214;2022-09-09T08:49:38;4.75;;;1.40;;
74648;SDS011;63168;49.280;7.214;2022-09-09T08:52:15;3.72;;;1.30;;
74648;SDS011;63168;49.280;7.214;2022-09-09T08:54:44;2.90;;;1.10;;
74648;SDS011;63168;49.280;7.214;2022-09-09T08:57:11;4.20;;;1.30;;
74648;SDS011;63168;49.280;7.214;2022-09-09T08:59:45;3.83;;;1.33;;
74648;SDS011;63168;49.280;7.214;2022-09-09T09:02:14;5.00;;;1.15;;
74648;SDS011;63168;49.280;7.214;2022-09-09T09:04:45;3.93;;;1.20;;
74648;SDS011;63168;49.280;7.214;2022-09-09T09:07:24;3.67;;;1.30;;
74648;SDS011;63168;49.280;7.214;2022-09-09T09:09:57;5.03;;;1.33;;
74648;SDS011;63168;49.280;7.214;2022-09-09T09:12:29;6.40;;;1.70;;
74648;SDS011;63168;49.280;7.214;2022-09-09T09:15:01;5.75;;;1.27;;
74648;SDS011;63168;49.280;7.214;2022-09-09T09:17:33;3.55;;;1.25;;
74648;SDS011;63168;49.280;7.214;2022-09-09T09:20:02;4.93;;;1.20;;
74648;SDS011;63168;49.280;7.214;2022-09-09T09:22:29;3.67;;;1.20;;
74648;SDS011;63168;49.280;7.214;2022-09-09T09:25:02;3.35;;;1.00;;
74648;SDS011;63168;49.280;7.214;2022-09-09T09:27:39;4.53;;;1.20;;
74648;SDS011;63168;49.280;7.214;2022-09-09T09:30:14;5.63;;;1.17;;
74648;SDS011;63168;49.280;7.214;2022-09-09T09:32:43;4.00;;;1.05;;
74648;SDS011;63168;49.280;7.214;2022-09-09T09:35:15;3.45;;;1.25;;
74648;SDS011;63168;49.280;7.214;2022-09-09T09:37:41;4.30;;;1.17;;
74648;SDS011;63168;49.280;7.214;2022-09-09T09:40:09;2.63;;;1.10;;
74648;SDS011;63168;49.280;7.214;2022-09-09T09:42:35;2.90;;;1.10;;
74648;SDS011;63168;49.280;7.214;2022-09-09T09:45:06;3.80;;;1.17;;
74648;SDS011;63168;49.280;7.214;2022-09-09T09:47:34;2.67;;;1.10;;
74648;SDS011;63168;49.280;7.214;2022-09-09T09:49:59;2.15;;;1.02;;
74648;SDS011;63168;49.280;7.214;2022-09-09T09:52:26;3.53;;;1.30;;
74648;SDS011;63168;49.280;7.214;2022-09-09T09:54:54;3.45;;;1.40;;
74648;SDS011;63168;49.280;7.214;2022-09-09T09:57:22;2.22;;;1.30;;
74648;SDS011;63168;49.280;7.214;2022-09-09T10:00:00;2.80;;;1.15;;
74648;SDS011;63168;49.280;7.214;2022-09-09T10:02:31;3.10;;;0.98;;
74648;SDS011;63168;49.280;7.214;2022-09-09T10:05:05;3.83;;;1.10;;
74648;SDS011;63168;49.280;7.214;2022-09-09T10:07:37;3.05;;;1.30;;
74648;SDS011;63168;49.280;7.214;2022-09-09T10:10:04;3.15;;;1.17;;
74648;SDS011;63168;49.280;7.214;2022-09-09T10:12:37;1.98;;;1.00;;
74648;SDS011;63168;49.280;7.214;2022-09-09T10:15:14;2.80;;;1.02;;
74648;SDS011;63168;49.280;7.214;2022-09-09T10:17:56;2.97;;;1.00;;
74648;SDS011;63168;49.280;7.214;2022-09-09T10:20:32;2.90;;;1.10;;
74648;SDS011;63168;49.280;7.214;2022-09-09T10:23:09;2.83;;;1.25;;
74648;SDS011;63168;49.280;7.214;2022-09-09T10:25:54;2.40;;;0.90;;
74648;SDS011;63168;49.280;7.214;2022-09-09T10:28:38;2.92;;;1.10;;
74648;SDS011;63168;49.280;7.214;2022-09-09T10:31:19;3.47;;;1.10;;
74648;SDS011;63168;49.280;7.214;2022-09-09T10:33:55;4.03;;;1.23;;
74648;SDS011;63168;49.280;7.214;2022-09-09T10:36:28;71.15;;;14.85;;
74648;SDS011;63168;49.280;7.214;2022-09-09T10:38:57;27.23;;;7.13;;
74648;SDS011;63168;49.280;7.214;2022-09-09T10:41:30;35.65;;;9.32;;
74648;SDS011;63168;49.280;7.214;2022-09-09T10:47:21;31.40;;;7.72;;
74648;SDS011;63168;49.280;7.214;2022-09-09T10:50:06;30.38;;;7.10;;
74648;SDS011;63168;49.280;7.214;2022-09-09T10:52:45;28.98;;;6.45;;
74648;SDS011;63168;49.280;7.214;2022-09-09T10:55:18;27.85;;;7.50;;
74648;SDS011;63168;49.280;7.214;2022-09-09T10:57:46;27.87;;;7.63;;
74648;SDS011;63168;49.280;7.214;2022-09-09T11:00:15;22.63;;;6.78;;
74648;SDS011;63168;49.280;7.214;2022-09-09T11:02:44;22.42;;;5.40;;
74648;SDS011;63168;49.280;7.214;2022-09-09T11:05:16;22.48;;;6.03;;
74648;SDS011;63168;49.280;7.214;2022-09-09T11:07:44;17.40;;;5.15;;
74648;SDS011;63168;49.280;7.214;2022-09-09T11:10:17;20.38;;;4.70;;
74648;SDS011;63168;49.280;7.214;2022-09-09T11:12:49;17.95;;;4.68;;
74648;SDS011;63168;49.280;7.214;2022-09-09T11:15:20;18.98;;;4.90;;
74648;SDS011;63168;49.280;7.214;2022-09-09T11:17:52;19.48;;;4.72;;
74648;SDS011;63168;49.280;7.214;2022-09-09T11:20:23;15.55;;;3.88;;
74648;SDS011;63168;49.280;7.214;2022-09-09T11:22:50;15.27;;;4.35;;
74648;SDS011;63168;49.280;7.214;2022-09-09T11:25:22;19.52;;;4.43;;
74648;SDS011;63168;49.280;7.214;2022-09-09T11:27:56;13.23;;;3.38;;
74648;SDS011;63168;49.280;7.214;2022-09-09T11:30:32;14.65;;;3.33;;
74648;SDS011;63168;49.280;7.214;2022-09-09T11:36:03;14.60;;;3.55;;
74648;SDS011;63168;49.280;7.214;2022-09-09T11:38:44;13.17;;;3.63;;
74648;SDS011;63168;49.280;7.214;2022-09-09T11:41:11;12.65;;;3.47;;
74648;SDS011;63168;49.280;7.214;2022-09-09T11:43:40;14.70;;;3.20;;
74648;SDS011;63168;49.280;7.214;2022-09-09T11:46:07;13.60;;;3.33;;
74648;SDS011;63168;49.280;7.214;2022-09-09T11:48:36;13.20;;;3.33;;
74648;SDS011;63168;49.280;7.214;2022-09-09T11:51:05;10.38;;;2.83;;
74648;SDS011;63168;49.280;7.214;2022-09-09T11:53:32;11.50;;;2.67;;
74648;SDS011;63168;49.280;7.214;2022-09-09T11:56:00;9.27;;;2.58;;
74648;SDS011;63168;49.280;7.214;2022-09-09T11:58:29;8.55;;;2.50;;
74648;SDS011;63168;49.280;7.214;2022-09-09T12:01:01;8.13;;;2.33;;
74648;SDS011;63168;49.280;7.214;2022-09-09T12:03:40;11.00;;;2.70;;
74648;SDS011;63168;49.280;7.214;2022-09-09T12:06:10;7.75;;;2.30;;
74648;SDS011;63168;49.280;7.214;2022-09-09T12:08:39;8.00;;;2.17;;
74648;SDS011;63168;49.280;7.214;2022-09-09T12:11:07;9.45;;;2.33;;
74648;SDS011;63168;49.280;7.214;2022-09-09T12:13:33;7.63;;;2.37;;
74648;SDS011;63168;49.280;7.214;2022-09-09T12:15:59;11.15;;;2.30;;
74648;SDS011;63168;49.280;7.214;2022-09-09T12:18:32;8.68;;;2.50;;
74648;SDS011;63168;49.280;7.214;2022-09-09T12:21:03;7.32;;;2.08;;
74648;SDS011;63168;49.280;7.214;2022-09-09T12:23:42;10.20;;;2.33;;
74648;SDS011;63168;49.280;7.214;2022-09-09T12:26:19;7.20;;;2.38;;
74648;SDS011;63168;49.280;7.214;2022-09-09T12:28:55;6.93;;;2.15;;
74648;SDS011;63168;49.280;7.214;2022-09-09T12:31:31;5.68;;;1.88;;
74648;SDS011;63168;49.280;7.214;2022-09-09T12:34:04;7.43;;;1.90;;
74648;SDS011;63168;49.280;7.214;2022-09-09T12:36:35;8.65;;;2.25;;
74648;SDS011;63168;49.280;7.214;2022-09-09T12:39:12;4.82;;;1.65;;
74648;SDS011;63168;49.280;7.214;2022-09-09T12:41:50;8.23;;;2.15;;
74648;SDS011;63168;49.280;7.214;2022-09-09T12:44:18;4.68;;;2.30;;
74648;SDS011;63168;49.280;7.214;2022-09-09T12:46:43;5.57;;;1.80;;
74648;SDS011;63168;49.280;7.214;2022-09-09T12:49:21;5.53;;;1.77;;
74648;SDS011;63168;49.280;7.214;2022-09-09T12:51:51;5.55;;;1.73;;
74648;SDS011;63168;49.280;7.214;2022-09-09T12:54:18;5.50;;;1.80;;
74648;SDS011;63168;49.280;7.214;2022-09-09T12:56:45;6.75;;;1.92;;
74648;SDS011;63168;49.280;7.214;2022-09-09T12:59:17;6.72;;;2.13;;
74648;SDS011;63168;49.280;7.214;2022-09-09T13:01:54;4.53;;;1.85;;
74648;SDS011;63168;49.280;7.214;2022-09-09T13:04:20;4.50;;;1.70;;
74648;SDS011;63168;49.280;7.214;2022-09-09T13:06:49;4.65;;;1.58;;
74648;SDS011;63168;49.280;7.214;2022-09-09T13:09:14;4.83;;;1.77;;
74648;SDS011;63168;49.280;7.214;2022-09-09T13:11:42;5.60;;;1.70;;
74648;SDS011;63168;49.280;7.214;2022-09-09T13:14:13;6.32;;;1.70;;
74648;SDS011;63168;49.280;7.214;2022-09-09T13:16:54;3.83;;;1.60;;
74648;SDS011;63168;49.280;7.214;2022-09-09T13:19:20;3.72;;;1.67;;
74648;SDS011;63168;49.280;7.214;2022-09-09T13:21:46;3.35;;;1.52;;
74648;SDS011;63168;49.280;7.214;2022-09-09T13:24:22;4.07;;;1.50;;
74648;SDS011;63168;49.280;7.214;2022-09-09T13:26:55;5.28;;;1.63;;
74648;SDS011;63168;49.280;7.214;2022-09-09T13:29:21;5.00;;;1.55;;
74648;SDS011;63168;49.280;7.214;2022-09-09T13:31:47;6.13;;;1.60;;
74648;SDS011;63168;49.280;7.214;2022-09-09T13:34:13;5.30;;;1.92;;
74648;SDS011;63168;49.280;7.214;2022-09-09T13:36:54;4.70;;;1.90;;
74648;SDS011;63168;49.280;7.214;2022-09-09T13:39:24;4.80;;;1.67;;
74648;SDS011;63168;49.280;7.214;2022-09-09T13:41:49;5.13;;;1.70;;
74648;SDS011;63168;49.280;7.214;2022-09-09T13:44:17;5.88;;;1.48;;
74648;SDS011;63168;49.280;7.214;2022-09-09T13:46:48;5.65;;;1.60;;
74648;SDS011;63168;49.280;7.214;2022-09-09T13:49:24;4.38;;;1.40;;
74648;SDS011;63168;49.280;7.214;2022-09-09T13:52:02;5.53;;;1.40;;
74648;SDS011;63168;49.280;7.214;2022-09-09T13:54:28;4.40;;;1.58;;
74648;SDS011;63168;49.280;7.214;2022-09-09T13:56:55;3.00;;;1.33;;
74648;SDS011;63168;49.280;7.214;2022-09-09T13:59:22;4.95;;;1.50;;
74648;SDS011;63168;49.280;7.214;2022-09-09T14:01:49;4.17;;;1.80;;
74648;SDS011;63168;49.280;7.214;2022-09-09T14:04:16;4.10;;;1.58;;
74648;SDS011;63168;49.280;7.214;2022-09-09T14:06:42;4.50;;;1.70;;
74648;SDS011;63168;49.280;7.214;2022-09-09T14:09:10;4.30;;;1.45;;
74648;SDS011;63168;49.280;7.214;2022-09-09T14:11:37;4.07;;;1.40;;
74648;SDS011;63168;49.280;7.214;2022-09-09T14:14:03;4.43;;;1.70;;
74648;SDS011;63168;49.280;7.214;2022-09-09T14:16:29;3.42;;;1.30;;
74648;SDS011;63168;49.280;7.214;2022-09-09T14:18:55;4.55;;;1.50;;
74648;SDS011;63168;49.280;7.214;2022-09-09T14:21:24;2.95;;;1.58;;
74648;SDS011;63168;49.280;7.214;2022-09-09T14:23:50;3.97;;;1.30;;
74648;SDS011;63168;49.280;7.214;2022-09-09T14:26:15;4.37;;;1.50;;
74648;SDS011;63168;49.280;7.214;2022-09-09T14:28:41;3.13;;;1.20;;
74648;SDS011;63168;49.280;7.214;2022-09-09T14:31:06;3.55;;;1.42;;
74648;SDS011;63168;49.280;7.214;2022-09-09T14:33:33;4.43;;;1.50;;
74648;SDS011;63168;49.280;7.214;2022-09-09T14:36:01;4.55;;;1.40;;
74648;SDS011;63168;49.280;7.214;2022-09-09T14:38:28;3.20;;;1.30;;
74648;SDS011;63168;49.280;7.214;2022-09-09T14:40:54;4.60;;;1.25;;
74648;SDS011;63168;49.280;7.214;2022-09-09T14:43:21;4.07;;;1.27;;
74648;SDS011;63168;49.280;7.214;2022-09-09T14:45:46;3.45;;;1.60;;
74648;SDS011;63168;49.280;7.214;2022-09-09T14:48:13;4.05;;;1.30;;
74648;SDS011;63168;49.280;7.214;2022-09-09T14:50:40;4.30;;;1.73;;
74648;SDS011;63168;49.280;7.214;2022-09-09T14:53:06;2.40;;;1.20;;
74648;SDS011;63168;49.280;7.214;2022-09-09T14:55:32;3.73;;;1.40;;
74648;SDS011;63168;49.280;7.214;2022-09-09T14:57:57;3.40;;;1.30;;
74648;SDS011;63168;49.280;7.214;2022-09-09T15:00:23;3.65;;;1.45;;
74648;SDS011;63168;49.280;7.214;2022-09-09T15:02:51;3.55;;;1.60;;
74648;SDS011;63168;49.280;7.214;2022-09-09T15:05:17;3.87;;;1.30;;
74648;SDS011;63168;49.280;7.214;2022-09-09T15:07:43;3.30;;;1.30;;